aviador You're here:

PAIK Decoded Metar

in _UNIDENTIFIED
Report Time2017-07-22 21:56:00
UTC Time2017-07-22 22:34:17
Flight Rules vfr VFR
Wind240° at 11 kt
W.Decomp.*RWY 24: 10.5 kt HW 3.4 kt LCW
W.Rank240° ranks 13
Current wind is above 240° avg. (7.3)
Visibility9999 m
Phenomena:N/A
Clouds:N/A
Expected CloudBase > 3,200 ft AGL from Temp-Dew spread
CeilingNone
Temp20°C (ISA +5)
Dew Point12°C (60% RH)
AAT16.7°C
QNH1010 hPa
Density Alt1,083 ft
Elevation167 ft
Report Wrong Elevation
Raw Report
PAIK 222156Z AUTO 24011KT 10SM CLR 20/12 A2982 RMK AO2 SLP098
T02000117=

Extra information for PAIK:More info

Metar Taf Metar & Taf Last 4 Metars F.Rules Stats Wind Profile Meteogram Temp Stats Metar ALERT Operation Metar Decoded Social comments